createdAt,value
2018-09-03T00:01:41.936Z,90.40
2018-09-03T00:07:12.357Z,90.40
2018-09-03T00:09:41.013Z,90.40
2018-09-03T00:18:15.128Z,90.10
2018-09-03T00:20:43.060Z,89.80
2018-09-03T00:23:30.585Z,90.00
2018-09-03T00:25:58.022Z,89.80
2018-09-03T00:28:25.686Z,90.00
2018-09-03T00:30:57.772Z,89.50
2018-09-03T00:36:51.177Z,89.50
2018-09-03T00:39:24.382Z,89.30
2018-09-03T00:41:57.511Z,89.20
2018-09-03T00:44:36.082Z,89.30
2018-09-03T00:47:17.783Z,88.80
2018-09-03T00:49:46.451Z,88.90
2018-09-03T00:52:14.286Z,88.50
2018-09-03T00:54:42.251Z,88.70
2018-09-03T00:57:09.922Z,88.90
2018-09-03T01:02:42.981Z,89.00
2018-09-03T01:10:57.689Z,89.50
2018-09-03T01:13:25.447Z,89.40
2018-09-03T01:15:53.057Z,89.50
2018-09-03T01:18:20.593Z,89.70
2018-09-03T01:23:51.511Z,89.70
2018-09-03T01:26:19.128Z,89.50
2018-09-03T01:28:52.512Z,90.00
2018-09-03T01:31:20.874Z,89.70
2018-09-03T01:34:03.334Z,90.10
2018-09-03T01:36:31.086Z,90.20
2018-09-03T01:42:21.867Z,90.30
2018-09-03T01:44:49.555Z,90.40
2018-09-03T01:47:17.203Z,90.40
2018-09-03T01:49:44.739Z,90.50
2018-09-03T01:52:12.367Z,90.70
2018-09-03T01:54:39.881Z,90.60
2018-09-03T01:57:07.414Z,90.50
2018-09-03T01:59:34.889Z,90.40
2018-09-03T02:02:02.552Z,90.60
2018-09-03T02:04:30.039Z,90.50
2018-09-03T02:06:57.580Z,90.40
2018-09-03T02:09:25.181Z,90.60
2018-09-03T02:11:52.590Z,90.40
2018-09-03T02:14:20.154Z,90.40
2018-09-03T02:16:47.647Z,90.50
2018-09-03T02:19:15.191Z,90.40
2018-09-03T02:21:42.629Z,90.50
2018-09-03T02:24:10.109Z,90.50
2018-09-03T02:26:37.611Z,90.50
2018-09-03T02:29:05.155Z,90.50
2018-09-03T02:31:32.587Z,90.70
2018-09-03T02:34:00.080Z,90.80
2018-09-03T02:36:27.495Z,90.80
2018-09-03T02:38:54.913Z,90.70
2018-09-03T02:41:22.429Z,90.70
2018-09-03T02:43:50.060Z,90.80
2018-09-03T02:46:17.555Z,90.70
2018-09-03T02:48:45.039Z,90.80
2018-09-03T02:51:12.571Z,90.70
2018-09-03T02:53:40.119Z,90.50
2018-09-03T02:56:07.653Z,90.60
2018-09-03T02:58:35.166Z,90.80
2018-09-03T03:01:02.762Z,90.80
2018-09-03T03:03:30.311Z,90.90
2018-09-03T03:05:57.893Z,90.90
2018-09-03T03:08:25.438Z,90.80
2018-09-03T03:10:52.852Z,90.80
2018-09-03T03:13:20.474Z,90.90
2018-09-03T03:15:48.098Z,90.90
2018-09-03T03:18:15.550Z,90.90
2018-09-03T03:20:43.021Z,90.80
2018-09-03T03:23:10.419Z,90.70
2018-09-03T03:25:37.896Z,90.80
2018-09-03T03:28:05.464Z,90.80
2018-09-03T03:30:33.075Z,90.90
2018-09-03T03:33:00.606Z,90.80
2018-09-03T03:35:28.122Z,91.00
2018-09-03T03:37:55.662Z,91.30
2018-09-03T03:40:23.249Z,91.30
2018-09-03T03:42:50.779Z,91.30
2018-09-03T03:45:18.323Z,91.30
2018-09-03T03:47:45.807Z,91.30
2018-09-03T03:50:13.342Z,91.20
2018-09-03T03:52:40.875Z,91.30
2018-09-03T03:55:08.549Z,91.30
2018-09-03T03:57:36.648Z,91.40
2018-09-03T04:00:07.442Z,91.40
2018-09-03T04:02:35.059Z,91.30
2018-09-03T04:05:02.570Z,91.20
2018-09-03T04:07:30.016Z,91.20
2018-09-03T04:09:57.532Z,91.20
2018-09-03T04:12:25.082Z,91.30
2018-09-03T04:14:52.589Z,91.20
2018-09-03T04:17:20.133Z,91.10
2018-09-03T04:19:54.175Z,91.20
2018-09-03T04:22:21.632Z,91.20
2018-09-03T04:24:49.225Z,91.20
2018-09-03T04:27:16.785Z,91.10
2018-09-03T04:29:44.248Z,91.20
2018-09-03T04:32:11.822Z,91.10
2018-09-03T04:34:39.264Z,91.10
2018-09-03T04:37:06.920Z,91.10
2018-09-03T04:39:34.456Z,91.10
2018-09-03T04:42:02.016Z,91.30
2018-09-03T04:44:29.520Z,91.20
2018-09-03T04:46:57.023Z,91.10
2018-09-03T04:49:24.526Z,91.30
2018-09-03T04:51:51.986Z,91.20
2018-09-03T04:54:19.412Z,91.40
2018-09-03T04:56:46.902Z,91.40
2018-09-03T04:59:14.436Z,91.40
2018-09-03T05:01:41.836Z,91.40
2018-09-03T05:04:09.261Z,91.40
2018-09-03T05:06:36.740Z,91.60
2018-09-03T05:09:05.127Z,91.40
2018-09-03T05:11:32.759Z,91.50
2018-09-03T05:14:00.311Z,91.60
2018-09-03T05:16:28.151Z,91.70
2018-09-03T05:18:55.579Z,91.60
2018-09-03T05:21:23.101Z,91.70
2018-09-03T05:23:50.687Z,91.60
2018-09-03T05:26:18.566Z,91.50
2018-09-03T05:28:46.006Z,91.50
2018-09-03T05:31:13.518Z,91.40
2018-09-03T05:33:41.059Z,91.50
2018-09-03T05:36:08.586Z,91.40
2018-09-03T05:38:36.064Z,91.30
2018-09-03T05:41:03.623Z,91.30
2018-09-03T05:43:31.540Z,91.10
2018-09-03T05:45:58.893Z,91.00
2018-09-03T05:48:26.523Z,91.10
2018-09-03T05:50:54.624Z,91.20
2018-09-03T05:53:22.138Z,91.20
2018-09-03T05:55:50.124Z,91.10
2018-09-03T05:58:17.916Z,91.00
2018-09-03T06:00:45.500Z,90.90
2018-09-03T06:03:13.047Z,90.80
2018-09-03T06:05:40.641Z,90.80
2018-09-03T06:08:08.869Z,90.80
2018-09-03T06:10:36.353Z,90.70
2018-09-03T06:13:03.820Z,90.80
2018-09-03T06:15:31.393Z,90.80
2018-09-03T06:17:58.956Z,90.70
2018-09-03T06:20:26.403Z,91.00
2018-09-03T06:22:53.874Z,91.00
2018-09-03T06:25:30.136Z,91.00
2018-09-03T06:28:14.356Z,90.90
2018-09-03T06:30:59.519Z,90.80
2018-09-03T06:33:27.244Z,90.80
2018-09-03T06:35:54.794Z,90.60
2018-09-03T06:38:23.194Z,90.60
2018-09-03T06:40:50.984Z,90.60
2018-09-03T06:43:27.840Z,90.70
2018-09-03T06:45:55.477Z,90.70
2018-09-03T06:48:22.941Z,90.70
2018-09-03T06:50:50.349Z,90.60
2018-09-03T06:53:17.958Z,90.70
2018-09-03T06:55:45.606Z,90.80
2018-09-03T06:58:13.073Z,90.70
2018-09-03T07:00:40.475Z,90.70
2018-09-03T07:03:08.037Z,90.60
2018-09-03T07:05:35.511Z,90.50
2018-09-03T07:08:03.102Z,90.60
2018-09-03T07:10:30.578Z,90.60
2018-09-03T07:12:58.159Z,90.60
2018-09-03T07:15:25.920Z,90.50
2018-09-03T07:17:59.843Z,90.50
2018-09-03T07:20:27.309Z,90.60
2018-09-03T07:22:54.887Z,90.40
2018-09-03T07:25:22.265Z,90.20
2018-09-03T07:27:49.734Z,90.40
2018-09-03T07:30:17.197Z,90.40
2018-09-03T07:32:44.637Z,90.40
2018-09-03T07:35:12.159Z,90.20
2018-09-03T07:37:39.804Z,90.40
2018-09-03T07:40:08.495Z,90.20
2018-09-03T07:42:36.287Z,90.00
2018-09-03T07:45:04.214Z,89.70
2018-09-03T07:47:31.757Z,89.20
2018-09-03T07:49:59.173Z,89.50
2018-09-03T07:52:26.893Z,89.30
2018-09-03T07:54:54.885Z,89.20
2018-09-03T07:57:22.387Z,88.90
2018-09-03T07:59:50.027Z,89.10
2018-09-03T08:02:17.656Z,88.40
2018-09-03T08:04:45.444Z,88.00
2018-09-03T08:07:13.005Z,88.00
2018-09-03T08:09:40.457Z,88.10
2018-09-03T08:12:07.987Z,87.70
2018-09-03T08:14:35.861Z,87.20
2018-09-03T08:17:03.413Z,87.60
2018-09-03T08:19:30.960Z,86.90
2018-09-03T08:21:59.019Z,87.10
2018-09-03T08:24:26.425Z,87.40
2018-09-03T08:26:53.943Z,86.70
2018-09-03T08:29:21.690Z,87.30
2018-09-03T08:31:50.020Z,87.30
2018-09-03T08:34:18.823Z,87.50
2018-09-03T08:36:46.189Z,87.50
2018-09-03T08:39:14.243Z,87.40
2018-09-03T08:41:42.510Z,87.40
2018-09-03T08:44:10.114Z,87.20
2018-09-03T08:46:37.613Z,86.80
2018-09-03T08:49:05.411Z,86.40
2018-09-03T08:51:34.482Z,86.90
2018-09-03T08:56:55.078Z,86.80
2018-09-03T08:59:22.554Z,86.00
2018-09-03T09:01:49.989Z,85.90
2018-09-03T09:04:24.203Z,85.60
2018-09-03T09:06:55.658Z,85.10
2018-09-03T09:09:23.209Z,84.90
2018-09-03T09:11:50.834Z,85.20
2018-09-03T09:14:25.474Z,83.80
2018-09-03T09:16:53.041Z,84.30
2018-09-03T09:19:20.976Z,85.10
2018-09-03T09:21:48.817Z,84.90
2018-09-03T09:24:16.330Z,84.00
2018-09-03T09:26:58.057Z,84.30
2018-09-03T09:29:25.915Z,84.00
2018-09-03T09:31:53.795Z,83.50
2018-09-03T09:34:22.058Z,84.10
2018-09-03T09:36:49.573Z,83.40
2018-09-03T09:39:18.145Z,82.80
2018-09-03T09:41:45.782Z,82.10
2018-09-03T09:44:14.716Z,81.60
2018-09-03T09:46:42.443Z,80.40
2018-09-03T09:49:11.320Z,78.70
2018-09-03T09:51:38.858Z,76.90
2018-09-03T09:54:06.501Z,76.70
2018-09-03T09:56:33.971Z,76.50
2018-09-03T09:59:01.433Z,76.10
2018-09-03T10:01:36.829Z,76.50
2018-09-03T10:04:04.502Z,76.80
2018-09-03T10:06:32.305Z,76.90
2018-09-03T10:08:59.830Z,76.70
2018-09-03T10:11:27.958Z,75.50
2018-09-03T10:13:55.519Z,75.00
2018-09-03T10:16:23.243Z,75.20
2018-09-03T10:18:52.294Z,74.90
2018-09-03T10:21:21.957Z,75.60
2018-09-03T10:23:49.553Z,74.70
2018-09-03T10:26:17.116Z,73.60
2018-09-03T10:28:44.834Z,74.00
2018-09-03T10:31:12.364Z,72.70
2018-09-03T10:33:47.933Z,72.10
2018-09-03T10:39:35.067Z,68.00
2018-09-03T10:42:21.125Z,67.10
2018-09-03T10:45:01.354Z,69.30
2018-09-03T10:47:47.172Z,68.80
2018-09-03T10:50:14.868Z,66.70
2018-09-03T10:52:44.047Z,64.40
2018-09-03T10:55:12.840Z,63.50
2018-09-03T10:57:40.389Z,63.80
2018-09-03T11:00:07.937Z,64.40
2018-09-03T11:02:48.147Z,63.80
2018-09-03T11:08:11.624Z,65.70
2018-09-03T11:16:55.984Z,65.10
2018-09-03T11:19:26.005Z,65.10
2018-09-03T11:27:58.452Z,66.40
2018-09-03T11:33:19.119Z,65.70
2018-09-03T11:35:46.840Z,63.60
2018-09-03T11:44:33.089Z,59.40
2018-09-03T11:47:00.712Z,59.70
2018-09-03T11:52:33.115Z,60.30
2018-09-03T11:55:19.113Z,60.80
2018-09-03T11:57:52.439Z,60.40
2018-09-03T12:00:25.438Z,59.20
2018-09-03T12:02:52.914Z,59.00
2018-09-03T12:08:23.560Z,59.50
2018-09-03T12:10:53.517Z,60.20
2018-09-03T12:13:20.977Z,59.70
2018-09-03T12:18:32.528Z,60.00
2018-09-03T12:21:13.460Z,59.70
2018-09-03T12:23:41.600Z,59.40
2018-09-03T12:26:09.496Z,59.60
2018-09-03T12:31:52.217Z,60.70
2018-09-03T12:34:19.685Z,60.60
2018-09-03T12:36:47.311Z,60.80
2018-09-03T12:39:17.773Z,60.80
2018-09-03T12:41:45.343Z,61.00
2018-09-03T12:44:25.518Z,62.20
2018-09-03T12:46:53.060Z,61.60
2018-09-03T12:52:36.202Z,61.00
2018-09-03T13:01:07.645Z,60.50
2018-09-03T13:03:35.166Z,60.30
2018-09-03T13:06:26.048Z,61.30
2018-09-03T13:08:53.467Z,61.10
2018-09-03T13:14:14.239Z,61.10
2018-09-03T13:16:58.628Z,60.60
2018-09-03T13:22:27.929Z,61.10
2018-09-03T13:24:55.476Z,61.40
2018-09-03T13:27:23.041Z,61.10
2018-09-03T13:33:03.027Z,59.80
2018-09-03T13:36:00.927Z,59.60
2018-09-03T13:38:28.625Z,59.30
2018-09-03T13:41:04.315Z,59.00
2018-09-03T13:43:32.087Z,59.00
2018-09-03T13:45:59.750Z,58.50
2018-09-03T13:48:47.098Z,58.70
2018-09-03T13:51:14.633Z,58.00
2018-09-03T13:59:46.781Z,55.60
2018-09-03T14:02:18.189Z,53.60
2018-09-03T17:04:53.298Z,55.80
2018-09-03T17:07:21.300Z,55.90
2018-09-03T17:09:49.862Z,55.80
2018-09-03T17:12:17.775Z,56.60
2018-09-03T17:14:45.292Z,57.30
2018-09-03T17:17:12.792Z,58.40
2018-09-03T17:19:52.888Z,58.80
2018-09-03T17:22:20.311Z,58.80
2018-09-03T17:24:54.560Z,58.60
2018-09-03T17:27:22.115Z,58.50
2018-09-03T17:32:55.702Z,58.10
2018-09-03T17:38:36.299Z,58.40
2018-09-03T17:41:23.677Z,58.70
2018-09-03T17:43:51.332Z,58.80
2018-09-03T17:46:44.932Z,60.00
2018-09-03T17:49:24.044Z,62.00
2018-09-03T17:51:52.127Z,62.90
2018-09-03T17:54:20.102Z,64.20
2018-09-03T17:56:47.883Z,64.50
2018-09-03T17:59:19.096Z,64.20
2018-09-03T18:01:46.875Z,64.10
2018-09-03T18:04:14.292Z,64.40
2018-09-03T18:06:41.787Z,64.50
2018-09-03T18:09:09.534Z,64.50
2018-09-03T18:11:38.290Z,64.40
2018-09-03T18:14:05.910Z,63.90
2018-09-03T18:16:33.910Z,64.70
2018-09-03T18:19:01.488Z,65.20
2018-09-03T18:21:29.716Z,65.00
2018-09-03T18:23:57.528Z,66.00
2018-09-03T18:26:24.922Z,66.10
2018-09-03T18:28:52.547Z,66.70
2018-09-03T18:31:20.230Z,66.80
2018-09-03T18:33:47.877Z,67.80
2018-09-03T18:36:15.377Z,68.40
2018-09-03T18:38:42.938Z,68.80
2018-09-03T18:41:13.370Z,69.00
2018-09-03T18:43:41.196Z,69.30
2018-09-03T18:52:39.536Z,67.90
2018-09-03T18:57:58.313Z,67.90
2018-09-03T19:00:25.866Z,68.60
2018-09-03T19:02:53.539Z,69.30
2018-09-03T19:05:22.580Z,69.90
2018-09-03T19:07:50.499Z,71.50
2018-09-03T19:10:17.960Z,71.40
2018-09-03T19:12:45.410Z,70.20
2018-09-03T19:15:13.060Z,70.00
2018-09-03T19:17:40.606Z,70.20
2018-09-03T19:20:08.067Z,71.30
2018-09-03T19:22:35.598Z,72.70
2018-09-03T19:25:03.286Z,73.20
2018-09-03T19:27:30.850Z,73.10
2018-09-03T19:29:58.238Z,73.00
2018-09-03T19:32:25.769Z,73.00
2018-09-03T19:34:53.232Z,73.30
2018-09-03T19:37:21.741Z,73.10
2018-09-03T19:39:49.289Z,72.80
2018-09-03T19:42:16.975Z,72.80
2018-09-03T19:44:44.506Z,73.10
2018-09-03T19:47:18.118Z,73.70
2018-09-03T19:49:45.660Z,73.30
2018-09-03T19:52:14.105Z,73.10
2018-09-03T19:54:41.748Z,73.40
2018-09-03T20:00:13.779Z,73.80
2018-09-03T20:02:41.507Z,74.40
2018-09-03T20:05:09.288Z,74.60
2018-09-03T20:07:36.925Z,74.40
2018-09-03T20:10:04.751Z,74.40
2018-09-03T20:12:32.757Z,74.00
2018-09-03T20:15:00.948Z,73.90
2018-09-03T20:17:29.589Z,74.10
2018-09-03T20:19:57.399Z,74.40
2018-09-03T20:22:24.965Z,74.90
2018-09-03T20:24:54.702Z,74.90
2018-09-03T20:33:40.519Z,74.00
2018-09-03T20:36:07.974Z,73.80
2018-09-03T20:38:35.545Z,73.70
2018-09-03T20:41:02.966Z,74.00
2018-09-03T20:43:30.551Z,74.40
2018-09-03T20:45:58.266Z,74.30
2018-09-03T20:48:29.514Z,74.50
2018-09-03T20:50:57.084Z,74.70
2018-09-03T20:53:25.003Z,75.00
2018-09-03T20:55:52.491Z,75.20
2018-09-03T20:58:19.906Z,75.50
2018-09-03T21:00:48.624Z,75.30
2018-09-03T21:03:16.696Z,74.70
2018-09-03T21:05:44.758Z,74.50
2018-09-03T21:08:12.276Z,74.40
2018-09-03T21:10:39.814Z,74.90
2018-09-03T21:13:07.208Z,74.80
2018-09-03T21:15:34.615Z,75.00
2018-09-03T21:18:02.023Z,75.10
2018-09-03T21:20:29.736Z,75.20
2018-09-03T21:22:57.162Z,74.90
2018-09-03T21:25:24.583Z,75.00
2018-09-03T21:27:52.000Z,75.00
2018-09-03T21:30:19.651Z,75.00
2018-09-03T21:32:47.175Z,74.90
2018-09-03T21:40:15.553Z,75.00
2018-09-03T21:42:43.068Z,75.30
2018-09-03T21:45:11.055Z,76.40
2018-09-03T21:47:51.023Z,76.40
2018-09-03T21:50:18.498Z,76.40
2018-09-03T21:52:47.840Z,76.30
2018-09-03T21:55:16.023Z,76.30
2018-09-03T21:57:43.510Z,76.50
2018-09-03T22:00:11.315Z,76.60
2018-09-03T22:05:40.145Z,76.70
2018-09-03T22:08:07.699Z,77.00
2018-09-03T22:13:37.616Z,77.70
2018-09-03T22:25:27.473Z,78.80
2018-09-03T22:27:54.990Z,79.60
2018-09-03T22:30:27.205Z,80.40
2018-09-03T22:32:54.724Z,81.30
2018-09-03T22:35:22.170Z,80.40
2018-09-03T22:37:49.783Z,80.40
2018-09-03T22:43:29.782Z,81.00
2018-09-03T22:45:57.225Z,81.20
2018-09-03T22:48:31.868Z,81.60
2018-09-03T22:50:59.340Z,81.80
2018-09-03T22:53:26.828Z,81.70
2018-09-03T22:55:54.338Z,81.70
2018-09-03T22:58:21.785Z,82.10
2018-09-03T23:00:49.441Z,82.50
2018-09-03T23:03:17.030Z,82.50
2018-09-03T23:05:44.717Z,82.40
2018-09-03T23:08:13.750Z,82.60
2018-09-03T23:13:35.668Z,83.40
2018-09-03T23:16:03.343Z,82.50
2018-09-03T23:18:31.444Z,82.40
2018-09-03T23:20:59.701Z,83.10
2018-09-03T23:23:29.382Z,83.10
2018-09-03T23:25:57.300Z,83.60
2018-09-03T23:28:28.265Z,83.00
2018-09-03T23:30:55.961Z,83.00
2018-09-03T23:33:23.540Z,83.20
2018-09-03T23:35:51.032Z,83.10
2018-09-03T23:38:38.858Z,83.30
2018-09-03T23:41:06.294Z,83.30
2018-09-03T23:43:35.599Z,83.50
2018-09-03T23:46:10.704Z,83.40
2018-09-03T23:48:52.747Z,83.70
2018-09-03T23:51:20.402Z,84.10
2018-09-03T23:53:47.894Z,84.30
2018-09-03T23:56:15.531Z,84.40
2018-09-03T23:58:43.626Z,84.60
